createdAt,value
2019-04-05T00:01:11.728Z,11.71
2019-04-05T00:02:15.854Z,11.69
2019-04-05T00:03:19.567Z,11.70
2019-04-05T00:04:23.334Z,11.59
2019-04-05T00:05:26.980Z,11.52
2019-04-05T00:06:30.626Z,11.51
2019-04-05T00:07:34.267Z,11.52
2019-04-05T00:08:37.959Z,11.53
2019-04-05T00:09:41.613Z,11.56
2019-04-05T00:10:45.344Z,11.55
2019-04-05T00:11:48.982Z,11.55
2019-04-05T00:12:52.617Z,11.56
2019-04-05T00:13:56.313Z,11.57
2019-04-05T00:14:59.940Z,11.56
2019-04-05T00:16:03.594Z,11.43
2019-04-05T00:17:07.227Z,11.39
2019-04-05T00:18:11.196Z,11.40
2019-04-05T00:19:14.877Z,11.39
2019-04-05T00:20:18.513Z,11.40
2019-04-05T00:21:22.169Z,11.42
2019-04-05T00:22:25.894Z,11.35
2019-04-05T00:23:29.615Z,11.41
2019-04-05T00:24:33.284Z,11.38
2019-04-05T00:25:36.921Z,11.35
2019-04-05T00:26:40.646Z,11.28
2019-04-05T00:27:44.636Z,11.18
2019-04-05T00:28:48.278Z,11.18
2019-04-05T00:29:51.938Z,11.15
2019-04-05T00:30:55.589Z,11.15
2019-04-05T00:31:59.247Z,11.09
2019-04-05T00:33:02.908Z,11.02
2019-04-05T00:34:06.547Z,11.02
2019-04-05T00:35:10.240Z,11.08
2019-04-05T00:36:14.205Z,11.09
2019-04-05T00:37:17.854Z,11.11
2019-04-05T00:38:21.486Z,11.16
2019-04-05T00:39:25.152Z,11.11
2019-04-05T00:40:28.815Z,11.11
2019-04-05T00:41:33.172Z,11.12
2019-04-05T00:42:36.963Z,11.09
2019-04-05T00:43:40.612Z,11.05
2019-04-05T00:44:44.190Z,11.05
2019-04-05T00:45:47.866Z,11.07
2019-04-05T00:46:51.522Z,11.03
2019-04-05T00:47:55.150Z,11.03
2019-04-05T00:48:58.810Z,11.01
2019-04-05T00:50:02.805Z,10.97
2019-04-05T00:51:06.808Z,10.97
2019-04-05T00:52:10.442Z,11.07
2019-04-05T00:53:14.095Z,11.07
2019-04-05T00:54:17.754Z,11.05
2019-04-05T00:55:21.412Z,11.01
2019-04-05T00:56:25.091Z,10.95
2019-04-05T00:57:28.718Z,10.82
2019-04-05T00:58:32.374Z,10.86
2019-04-05T00:59:36.021Z,10.90
2019-04-05T01:00:39.694Z,10.87
2019-04-05T01:01:43.368Z,10.81
2019-04-05T01:02:47.039Z,10.79
2019-04-05T01:03:50.670Z,10.79
2019-04-05T01:04:54.351Z,10.77
2019-04-05T01:05:57.980Z,10.82
2019-04-05T01:07:01.686Z,10.79
2019-04-05T01:08:05.690Z,10.77
2019-04-05T01:09:09.510Z,10.77
2019-04-05T01:10:13.567Z,10.76
2019-04-05T01:11:17.320Z,10.72
2019-04-05T01:12:23.394Z,10.68
2019-04-05T01:13:28.424Z,10.73
2019-04-05T01:14:32.169Z,10.73
2019-04-05T01:15:40.993Z,10.68
2019-04-05T01:16:41.194Z,10.64
2019-04-05T01:17:44.884Z,10.48
2019-04-05T01:18:48.518Z,10.48
2019-04-05T01:19:53.622Z,10.39
2019-04-05T01:21:00.171Z,10.39
2019-04-05T01:22:06.273Z,10.42
2019-04-05T01:23:11.240Z,10.41
2019-04-05T01:24:15.478Z,10.35
2019-04-05T01:25:20.911Z,10.35
2019-04-05T01:26:25.448Z,10.20
2019-04-05T01:27:30.874Z,10.17
2019-04-05T01:28:35.090Z,10.34
2019-04-05T01:29:38.755Z,10.31
2019-04-05T01:30:42.390Z,10.31
2019-04-05T01:31:46.061Z,10.31
2019-04-05T01:32:49.706Z,10.43
2019-04-05T01:33:53.413Z,10.43
2019-04-05T01:34:57.049Z,10.43
2019-04-05T01:36:00.762Z,10.41
2019-04-05T01:37:04.488Z,10.41
2019-04-05T01:38:08.455Z,10.40
2019-04-05T01:39:12.140Z,10.36
2019-04-05T01:40:16.102Z,10.28
2019-04-05T01:41:19.757Z,10.23
2019-04-05T01:42:24.208Z,10.14
2019-04-05T01:43:28.164Z,10.10
2019-04-05T01:44:32.427Z,10.02
2019-04-05T01:45:36.192Z,10.02
2019-04-05T01:46:39.927Z,10.00
2019-04-05T01:47:43.582Z,10.10
2019-04-05T01:48:47.634Z,10.10
2019-04-05T01:49:51.324Z,10.10
2019-04-05T01:50:55.142Z,10.08
2019-04-05T01:51:58.954Z,10.14
2019-04-05T01:53:02.655Z,10.09
2019-04-05T01:54:06.290Z,10.17
2019-04-05T01:55:10.425Z,10.18
2019-04-05T01:56:14.066Z,10.11
2019-04-05T01:57:17.766Z,10.14
2019-04-05T01:58:21.500Z,10.14
2019-04-05T01:59:25.227Z,9.90
2019-04-05T02:00:28.969Z,9.91
2019-04-05T02:01:32.624Z,9.91
2019-04-05T02:02:36.259Z,9.94
2019-04-05T02:03:39.988Z,10.00
2019-04-05T02:04:43.717Z,9.88
2019-04-05T02:05:47.383Z,9.84
2019-04-05T02:06:51.105Z,9.84
2019-04-05T02:07:54.957Z,9.82
2019-04-05T02:08:58.659Z,9.82
2019-04-05T02:10:02.840Z,9.91
2019-04-05T02:11:06.608Z,9.92
2019-04-05T02:12:10.439Z,9.89
2019-04-05T02:13:14.263Z,9.89
2019-04-05T02:14:18.197Z,9.87
2019-04-05T02:15:27.313Z,9.87
2019-04-05T02:16:30.993Z,9.91
2019-04-05T02:17:36.083Z,9.93
2019-04-05T02:18:39.842Z,9.96
2019-04-05T02:19:43.571Z,10.01
2019-04-05T02:20:47.213Z,10.01
2019-04-05T02:21:51.335Z,9.92
2019-04-05T02:22:55.343Z,9.93
2019-04-05T02:23:58.995Z,9.89
2019-04-05T02:25:02.648Z,9.89
2019-04-05T02:26:06.495Z,9.89
2019-04-05T02:27:10.257Z,9.89
2019-04-05T02:28:14.009Z,9.94
2019-04-05T02:29:17.647Z,10.01
2019-04-05T02:30:21.423Z,10.08
2019-04-05T02:31:25.089Z,10.08
2019-04-05T02:32:29.189Z,10.14
2019-04-05T02:33:32.858Z,10.09
2019-04-05T02:34:36.561Z,10.08
2019-04-05T02:35:40.273Z,10.12
2019-04-05T02:36:43.905Z,10.11
2019-04-05T02:37:47.657Z,10.07
2019-04-05T02:38:51.331Z,10.10
2019-04-05T02:39:54.994Z,10.10
2019-04-05T02:41:01.121Z,10.16
2019-04-05T02:42:05.061Z,10.16
2019-04-05T02:43:09.541Z,10.08
2019-04-05T02:44:15.466Z,10.12
2019-04-05T02:45:20.503Z,10.12
2019-04-05T02:46:26.271Z,10.22
2019-04-05T02:47:30.094Z,10.27
2019-04-05T02:48:36.846Z,10.30
2019-04-05T02:49:41.881Z,10.31
2019-04-05T02:50:48.449Z,10.30
2019-04-05T02:51:53.891Z,10.30
2019-04-05T02:53:00.465Z,10.29
2019-04-05T02:54:04.625Z,10.32
2019-04-05T02:55:08.966Z,10.32
2019-04-05T02:56:14.017Z,10.27
2019-04-05T02:57:18.777Z,10.25
2019-04-05T02:58:23.009Z,10.25
2019-04-05T02:59:26.994Z,10.23
2019-04-05T03:00:32.650Z,10.22
2019-04-05T03:01:36.599Z,10.27
2019-04-05T03:02:40.951Z,10.27
2019-04-05T03:03:44.589Z,10.19
2019-04-05T03:04:48.475Z,10.13
2019-04-05T03:05:52.627Z,10.16
2019-04-05T03:06:56.368Z,10.18
2019-04-05T03:08:00.391Z,10.21
2019-04-05T03:09:06.345Z,10.21
2019-04-05T03:10:10.028Z,10.14
2019-04-05T03:11:15.372Z,10.18
2019-04-05T03:12:19.858Z,10.18
2019-04-05T03:13:24.805Z,10.18
2019-04-05T03:14:29.883Z,10.14
2019-04-05T03:15:33.553Z,10.09
2019-04-05T03:16:41.908Z,10.08
2019-04-05T03:17:45.762Z,10.08
2019-04-05T03:19:01.673Z,10.14
2019-04-05T03:20:06.947Z,10.14
2019-04-05T03:21:12.280Z,10.20
2019-04-05T03:22:16.438Z,10.20
2019-04-05T03:23:20.669Z,10.17
2019-04-05T03:24:27.321Z,10.18
2019-04-05T03:25:31.613Z,10.18
2019-04-05T03:26:38.177Z,10.19
2019-04-05T03:27:41.823Z,10.12
2019-04-05T03:28:48.647Z,10.12
2019-04-05T03:29:53.208Z,10.16
2019-04-05T03:30:57.390Z,10.25
2019-04-05T03:32:01.029Z,10.25
2019-04-05T03:33:04.774Z,10.28
2019-04-05T03:34:08.995Z,10.28
2019-04-05T03:35:12.810Z,10.29
2019-04-05T03:36:17.277Z,10.26
2019-04-05T03:37:21.489Z,10.31
2019-04-05T03:38:25.144Z,10.37
2019-04-05T03:39:29.093Z,10.30
2019-04-05T03:40:32.898Z,10.30
2019-04-05T03:41:36.742Z,10.26
2019-04-05T03:42:40.630Z,10.26
2019-04-05T03:43:45.803Z,10.38
2019-04-05T03:44:50.056Z,10.38
2019-04-05T03:45:53.986Z,10.45
2019-04-05T03:46:58.215Z,10.47
2019-04-05T03:48:02.165Z,10.47
2019-04-05T03:49:06.230Z,10.45
2019-04-05T03:50:10.081Z,10.45
2019-04-05T03:51:14.034Z,10.47
2019-04-05T03:52:17.983Z,10.39
2019-04-05T03:53:22.938Z,10.39
2019-04-05T03:54:26.859Z,10.41
2019-04-05T03:55:30.870Z,10.34
2019-04-05T03:56:37.947Z,10.17
2019-04-05T03:57:41.080Z,10.07
2019-04-05T03:58:49.396Z,9.99
2019-04-05T03:59:53.638Z,9.95
2019-04-05T04:00:57.566Z,9.70
2019-04-05T04:02:01.695Z,9.70
2019-04-05T04:03:05.793Z,9.49
2019-04-05T04:04:09.787Z,9.49
2019-04-05T04:05:13.587Z,9.55
2019-04-05T04:06:17.649Z,9.54
2019-04-05T04:07:21.371Z,9.48
2019-04-05T04:08:25.175Z,9.35
2019-04-05T04:09:29.116Z,9.32
2019-04-05T04:10:32.812Z,9.22
2019-04-05T04:11:36.645Z,9.15
2019-04-05T04:12:40.674Z,9.04
2019-04-05T04:13:44.622Z,9.01
2019-04-05T04:14:49.814Z,9.04
2019-04-05T04:15:54.748Z,9.00
2019-04-05T04:17:11.544Z,9.02
2019-04-05T04:18:05.071Z,8.98
2019-04-05T04:19:08.939Z,8.94
2019-04-05T04:20:42.874Z,9.01
2019-04-05T04:22:11.930Z,8.95
2019-04-05T04:23:15.989Z,9.03
2019-04-05T04:24:20.787Z,8.91
2019-04-05T04:25:30.017Z,8.91
2019-04-05T04:26:35.089Z,8.85
2019-04-05T04:27:39.686Z,8.85
2019-04-05T04:28:43.355Z,8.82
2019-04-05T04:29:47.773Z,8.85
2019-04-05T04:31:05.792Z,8.86
2019-04-05T04:32:10.301Z,8.85
2019-04-05T04:33:14.511Z,8.78
2019-04-05T04:34:20.058Z,8.74
2019-04-05T04:35:23.768Z,8.66
2019-04-05T04:36:27.622Z,8.66
2019-04-05T04:37:31.282Z,8.64
2019-04-05T04:38:34.925Z,8.69
2019-04-05T04:39:38.966Z,8.78
2019-04-05T04:40:42.814Z,8.83
2019-04-05T04:41:46.559Z,8.80
2019-04-05T04:42:50.472Z,8.85
2019-04-05T04:43:55.208Z,8.80
2019-04-05T04:45:11.441Z,8.78
2019-04-05T04:46:05.213Z,8.87
2019-04-05T04:47:08.864Z,8.84
2019-04-05T04:48:12.700Z,8.79
2019-04-05T04:49:16.539Z,8.84
2019-04-05T04:50:21.073Z,8.90
2019-04-05T04:51:24.898Z,8.86
2019-04-05T04:52:31.715Z,8.89
2019-04-05T04:53:35.862Z,8.86
2019-04-05T04:54:40.181Z,8.89
2019-04-05T04:55:43.867Z,8.94
2019-04-05T04:56:47.822Z,9.02
2019-04-05T04:57:51.504Z,9.08
2019-04-05T04:58:55.261Z,9.10
2019-04-05T04:59:58.907Z,9.08
2019-04-05T05:01:02.906Z,9.12
2019-04-05T05:02:06.882Z,9.13
2019-04-05T05:03:11.099Z,9.14
2019-04-05T05:04:14.829Z,9.17
2019-04-05T05:05:19.682Z,9.28
2019-04-05T05:06:23.368Z,9.32
2019-04-05T05:07:27.018Z,9.28
2019-04-05T05:08:30.651Z,9.34
2019-04-05T05:09:34.611Z,9.34
2019-04-05T05:10:38.720Z,9.44
2019-04-05T05:11:42.517Z,9.60
2019-04-05T05:12:46.482Z,9.60
2019-04-05T05:13:50.375Z,9.79
2019-04-05T05:14:54.413Z,9.76
2019-04-05T05:15:58.442Z,9.74
2019-04-05T05:17:02.126Z,9.71
2019-04-05T05:18:05.952Z,9.67
2019-04-05T05:19:09.679Z,9.67
2019-04-05T05:20:13.373Z,9.67
2019-04-05T05:21:17.097Z,9.76
2019-04-05T05:22:20.792Z,9.75
2019-04-05T05:23:24.546Z,9.75
2019-04-05T05:24:29.038Z,9.72
2019-04-05T05:25:36.126Z,9.74
2019-04-05T05:26:39.822Z,9.88
2019-04-05T05:27:45.076Z,9.88
2019-04-05T05:28:48.919Z,9.97
2019-04-05T05:29:52.754Z,9.96
2019-04-05T05:30:56.998Z,9.96
2019-04-05T05:32:00.897Z,9.97
2019-04-05T05:33:04.727Z,9.88
2019-04-05T05:34:08.685Z,9.94
2019-04-05T05:35:12.898Z,10.00
2019-04-05T05:36:16.929Z,10.02
2019-04-05T05:37:20.992Z,10.13
2019-04-05T05:38:24.829Z,10.13
2019-04-05T05:39:28.471Z,10.04
2019-04-05T05:40:35.114Z,10.05
2019-04-05T05:41:37.490Z,10.03
2019-04-05T05:42:41.650Z,10.03
2019-04-05T05:43:45.383Z,10.05
2019-04-05T05:44:49.053Z,10.04
2019-04-05T05:45:52.714Z,10.04
2019-04-05T05:46:56.374Z,10.05
2019-04-05T05:48:00.610Z,10.15
2019-04-05T05:49:04.669Z,10.13
2019-04-05T05:50:08.468Z,10.13
2019-04-05T05:51:12.522Z,10.09
2019-04-05T05:52:16.394Z,10.10
2019-04-05T05:53:20.252Z,10.15
2019-04-05T05:54:23.913Z,10.15
2019-04-05T05:55:30.110Z,10.24
2019-04-05T05:56:32.949Z,10.24
2019-04-05T05:57:36.595Z,10.38
2019-04-05T05:58:40.243Z,10.48
2019-04-05T05:59:43.899Z,10.48
2019-04-05T06:00:47.599Z,10.40
2019-04-05T06:01:51.235Z,10.40
2019-04-05T06:02:59.530Z,10.42
2019-04-05T06:04:03.192Z,10.50
2019-04-05T06:05:06.971Z,10.60
2019-04-05T06:06:10.682Z,10.62
2019-04-05T06:07:14.330Z,10.57
2019-04-05T06:08:17.977Z,10.57
2019-04-05T06:09:21.629Z,10.61
2019-04-05T06:10:25.287Z,10.61
2019-04-05T06:11:29.010Z,10.68
2019-04-05T06:12:32.653Z,10.94
2019-04-05T06:13:36.308Z,11.17
2019-04-05T06:14:39.957Z,11.17
2019-04-05T06:15:43.612Z,11.28
2019-04-05T06:16:47.308Z,11.56
2019-04-05T06:18:03.826Z,11.56
2019-04-05T06:18:56.411Z,11.70
2019-04-05T06:20:01.554Z,11.70
2019-04-05T06:21:05.758Z,11.73
2019-04-05T06:22:09.401Z,11.79
2019-04-05T06:23:13.097Z,11.85
2019-04-05T06:24:16.798Z,11.92
2019-04-05T06:25:22.141Z,11.87
2019-04-05T06:26:25.725Z,11.91
2019-04-05T06:27:30.992Z,11.97
2019-04-05T06:28:34.702Z,12.01
2019-04-05T06:29:38.313Z,12.07
2019-04-05T06:30:41.969Z,12.11
2019-04-05T06:31:45.676Z,12.22
2019-04-05T06:32:49.428Z,12.25
2019-04-05T06:33:53.166Z,12.37
2019-04-05T06:34:56.890Z,12.43
2019-04-05T06:36:00.536Z,12.51
2019-04-05T06:37:04.190Z,12.54
2019-04-05T06:38:07.919Z,12.59
2019-04-05T06:39:11.596Z,12.61
2019-04-05T06:40:15.253Z,12.63
2019-04-05T06:41:18.877Z,12.65
2019-04-05T06:42:22.509Z,12.64
2019-04-05T06:43:26.197Z,12.61
2019-04-05T06:44:30.522Z,12.67
2019-04-05T06:45:34.157Z,12.73
2019-04-05T06:46:37.809Z,12.78
2019-04-05T06:47:43.660Z,12.78
2019-04-05T06:48:47.279Z,12.69
2019-04-05T06:49:50.985Z,12.68
2019-04-05T06:50:54.708Z,12.72
2019-04-05T06:51:58.377Z,12.78
2019-04-05T06:53:02.081Z,12.80
2019-04-05T06:54:05.731Z,12.90
2019-04-05T06:55:09.407Z,12.98
2019-04-05T06:56:13.061Z,13.05
2019-04-05T06:57:16.698Z,13.08
2019-04-05T06:58:20.556Z,13.08
2019-04-05T06:59:24.222Z,13.07
2019-04-05T07:00:29.520Z,13.07
2019-04-05T07:01:33.270Z,13.14
2019-04-05T07:02:36.913Z,13.28
2019-04-05T07:03:40.560Z,13.23
2019-04-05T07:04:44.209Z,13.19
2019-04-05T07:05:47.870Z,13.25
2019-04-05T07:06:51.516Z,13.35
2019-04-05T07:07:55.180Z,13.47
2019-04-05T07:08:58.833Z,13.62
2019-04-05T07:10:02.479Z,13.62
2019-04-05T07:11:06.173Z,13.64
2019-04-05T07:12:09.834Z,13.71
2019-04-05T07:13:13.463Z,13.76
2019-04-05T07:14:18.547Z,13.83
2019-04-05T07:15:22.165Z,13.95
2019-04-05T07:16:25.863Z,13.95
2019-04-05T07:17:31.176Z,13.92
2019-04-05T07:18:36.284Z,13.81
2019-04-05T07:19:40.241Z,13.81
2019-04-05T07:20:43.895Z,13.89
2019-04-05T07:21:47.583Z,13.82
2019-04-05T07:22:51.313Z,13.82
2019-04-05T07:23:54.897Z,13.93
2019-04-05T07:24:58.912Z,13.93
2019-04-05T07:26:02.717Z,13.92
2019-04-05T07:27:06.483Z,13.82
2019-04-05T07:28:10.190Z,13.82
2019-04-05T07:29:13.847Z,13.80
2019-04-05T07:30:17.572Z,13.80
2019-04-05T07:31:21.577Z,13.81
2019-04-05T07:32:25.332Z,13.88
2019-04-05T07:33:28.970Z,13.84
2019-04-05T07:34:33.024Z,13.88
2019-04-05T07:35:36.878Z,13.88
2019-04-05T07:36:40.622Z,13.87
2019-04-05T07:37:44.469Z,13.82
2019-04-05T07:38:48.198Z,13.88
2019-04-05T07:39:51.903Z,13.86
2019-04-05T07:40:55.698Z,13.86
2019-04-05T07:41:59.503Z,13.86
2019-04-05T07:43:03.161Z,13.79
2019-04-05T07:44:06.810Z,13.75
2019-04-05T07:45:11.106Z,13.77
2019-04-05T07:46:14.854Z,13.82
2019-04-05T07:47:18.500Z,13.80
2019-04-05T07:48:22.159Z,13.80
2019-04-05T07:49:25.803Z,13.89
2019-04-05T07:50:29.526Z,13.92
2019-04-05T07:51:33.193Z,13.96
2019-04-05T07:52:36.904Z,13.95
2019-04-05T07:53:40.638Z,13.96
2019-04-05T07:54:44.569Z,14.00
2019-04-05T07:55:48.288Z,13.99
2019-04-05T07:56:51.990Z,13.99
2019-04-05T07:57:55.695Z,13.98
2019-04-05T07:58:59.428Z,14.02
2019-04-05T08:00:04.593Z,13.96
2019-04-05T08:01:08.635Z,14.07
2019-04-05T08:02:12.371Z,14.05
2019-04-05T08:03:16.198Z,14.11
2019-04-05T08:04:19.846Z,14.14
2019-04-05T08:05:23.489Z,14.07
2019-04-05T08:06:27.941Z,14.14
2019-04-05T08:07:34.541Z,14.06
2019-04-05T08:08:46.865Z,14.04
2019-04-05T08:09:50.798Z,14.04
2019-04-05T08:10:56.326Z,13.99
2019-04-05T08:12:00.506Z,13.99
2019-04-05T08:13:04.932Z,13.97
2019-04-05T08:14:10.323Z,13.98
2019-04-05T08:15:14.191Z,13.97
2019-04-05T08:16:17.918Z,13.94
2019-04-05T08:17:21.643Z,14.03
2019-04-05T08:18:25.325Z,13.98
2019-04-05T08:19:28.981Z,13.98
2019-04-05T08:20:32.605Z,13.96
2019-04-05T08:21:36.324Z,14.06
2019-04-05T08:22:40.085Z,14.06
2019-04-05T08:23:43.871Z,14.15
2019-04-05T08:24:47.506Z,14.23
2019-04-05T08:25:51.231Z,14.23
2019-04-05T08:26:56.407Z,14.21
2019-04-05T08:28:00.066Z,14.21
2019-04-05T08:29:04.053Z,14.30
2019-04-05T08:30:07.899Z,14.32
2019-04-05T08:31:14.435Z,14.35
2019-04-05T08:32:21.468Z,14.31
2019-04-05T08:33:23.310Z,14.35
2019-04-05T08:34:27.046Z,14.35
2019-04-05T08:35:30.803Z,14.29
2019-04-05T08:36:34.458Z,14.27
2019-04-05T08:37:38.180Z,14.20
2019-04-05T08:38:41.904Z,14.20
2019-04-05T08:39:45.557Z,14.30
2019-04-05T08:40:49.228Z,14.31
2019-04-05T08:41:52.961Z,14.35
2019-04-05T08:42:56.729Z,14.35
2019-04-05T08:44:00.465Z,14.39
2019-04-05T08:45:05.215Z,14.43
2019-04-05T08:46:08.917Z,14.43
2019-04-05T08:47:13.042Z,14.36
2019-04-05T08:48:16.758Z,14.37
2019-04-05T08:49:20.411Z,14.42
2019-04-05T08:50:24.076Z,14.49
2019-04-05T08:51:27.735Z,14.43
2019-04-05T08:52:31.447Z,14.48
2019-04-05T08:53:35.104Z,14.55
2019-04-05T08:54:38.739Z,14.60
2019-04-05T08:55:42.474Z,14.68
2019-04-05T08:56:46.178Z,14.61
2019-04-05T08:57:49.873Z,14.55
2019-04-05T08:58:53.526Z,14.58
2019-04-05T08:59:57.156Z,14.64
2019-04-05T09:01:00.827Z,14.65
2019-04-05T09:02:04.515Z,14.65
2019-04-05T09:03:08.149Z,14.55
2019-04-05T09:04:11.891Z,14.52
2019-04-05T09:05:15.678Z,14.50
2019-04-05T09:06:20.050Z,14.52
2019-04-05T09:07:28.193Z,14.61
2019-04-05T09:08:31.840Z,14.62
2019-04-05T09:09:35.597Z,14.51
2019-04-05T09:10:39.241Z,14.45
2019-04-05T09:11:42.899Z,14.48
2019-04-05T09:12:46.655Z,14.50
2019-04-05T09:13:50.308Z,14.53
2019-04-05T09:14:53.892Z,14.53
2019-04-05T09:15:57.542Z,14.49
2019-04-05T09:17:01.173Z,14.31
2019-04-05T09:18:04.846Z,14.18
2019-04-05T09:19:08.802Z,14.18
2019-04-05T09:20:12.446Z,14.04
2019-04-05T09:21:17.748Z,14.06
2019-04-05T09:22:21.529Z,14.12
2019-04-05T09:23:25.226Z,14.16
2019-04-05T09:24:28.853Z,14.20
2019-04-05T09:25:32.566Z,14.27
2019-04-05T09:26:36.270Z,14.11
2019-04-05T09:27:39.995Z,14.13
2019-04-05T09:28:43.739Z,14.20
2019-04-05T09:29:47.322Z,14.26
2019-04-05T09:30:51.958Z,14.26
2019-04-05T09:31:55.881Z,14.31
2019-04-05T09:32:59.553Z,14.32
2019-04-05T09:34:03.320Z,14.36
2019-04-05T09:35:07.324Z,14.35
2019-04-05T09:36:11.057Z,14.26
2019-04-05T09:37:14.720Z,14.26
2019-04-05T09:38:18.312Z,14.26
2019-04-05T09:39:22.017Z,14.22
2019-04-05T09:40:25.671Z,14.17
2019-04-05T09:41:29.255Z,14.17
2019-04-05T09:42:32.846Z,14.06
2019-04-05T09:43:36.526Z,14.07
2019-04-05T09:44:40.185Z,14.11
2019-04-05T09:45:43.858Z,14.08
2019-04-05T09:46:51.055Z,14.08
2019-04-05T09:47:53.236Z,14.01
2019-04-05T09:48:56.942Z,14.12
2019-04-05T09:50:02.218Z,14.16
2019-04-05T09:51:07.213Z,14.14
2019-04-05T09:52:11.132Z,14.12
2019-04-05T09:53:14.873Z,14.21
2019-04-05T09:54:18.964Z,14.16
2019-04-05T09:55:27.112Z,14.21
2019-04-05T09:56:30.765Z,14.21
2019-04-05T09:57:34.430Z,14.32
2019-04-05T09:58:38.083Z,14.25
2019-04-05T09:59:41.760Z,14.33
2019-04-05T10:00:45.423Z,14.27
2019-04-05T10:01:49.476Z,14.24
2019-04-05T10:02:53.218Z,14.26
2019-04-05T10:03:56.880Z,14.23
2019-04-05T10:05:00.541Z,14.12
2019-04-05T10:06:04.546Z,14.28
2019-04-05T10:07:08.481Z,14.32
2019-04-05T10:08:13.382Z,14.40
2019-04-05T10:09:16.997Z,14.43
2019-04-05T10:10:20.722Z,14.46
2019-04-05T10:11:24.373Z,14.35
2019-04-05T10:12:28.024Z,14.35
2019-04-05T10:13:31.661Z,14.39
2019-04-05T10:14:35.303Z,14.40
2019-04-05T10:15:38.947Z,14.36
2019-04-05T10:16:42.613Z,14.36
2019-04-05T10:17:46.265Z,14.41
2019-04-05T10:18:51.531Z,14.48
2019-04-05T10:19:55.426Z,14.50
2019-04-05T10:21:02.265Z,14.47
2019-04-05T10:22:22.487Z,14.52
2019-04-05T10:23:30.672Z,14.53
2019-04-05T10:24:34.798Z,14.55
2019-04-05T10:25:44.842Z,14.60
2019-04-05T10:26:48.533Z,14.60
2019-04-05T10:27:52.651Z,14.55
2019-04-05T10:28:56.290Z,14.53
2019-04-05T10:29:59.920Z,14.55
2019-04-05T10:31:03.583Z,14.37
2019-04-05T10:32:07.280Z,14.33
2019-04-05T10:33:10.934Z,14.25
2019-04-05T10:34:14.597Z,14.25
2019-04-05T10:35:18.245Z,14.26
2019-04-05T10:36:21.955Z,14.33
2019-04-05T10:37:25.638Z,14.44
2019-04-05T10:38:29.295Z,14.49
2019-04-05T10:39:33.023Z,14.57
2019-04-05T10:40:36.678Z,14.61
2019-04-05T10:41:42.111Z,14.62
2019-04-05T10:42:45.872Z,14.60
2019-04-05T10:43:49.518Z,14.65
2019-04-05T10:44:53.244Z,14.65
2019-04-05T10:45:56.919Z,14.64
2019-04-05T10:47:00.568Z,14.64
2019-04-05T10:48:04.267Z,14.69
2019-04-05T10:49:07.904Z,14.55
2019-04-05T10:50:13.622Z,14.69
2019-04-05T10:51:17.268Z,14.66
2019-04-05T10:52:20.930Z,14.73
2019-04-05T10:53:24.625Z,14.86
2019-04-05T10:54:28.262Z,14.97
2019-04-05T10:55:31.902Z,15.00
2019-04-05T10:56:35.562Z,15.04
2019-04-05T10:57:39.234Z,15.06
2019-04-05T10:58:42.940Z,15.08
2019-04-05T10:59:46.584Z,15.05
2019-04-05T11:00:50.323Z,15.06
2019-04-05T11:01:54.025Z,15.07
2019-04-05T11:02:57.735Z,15.11
2019-04-05T11:04:01.428Z,15.06
2019-04-05T11:05:05.445Z,15.07
2019-04-05T11:06:09.427Z,15.02
2019-04-05T11:07:13.073Z,14.98
2019-04-05T11:08:16.797Z,15.07
2019-04-05T11:09:20.587Z,15.14
2019-04-05T11:10:24.281Z,15.20
2019-04-05T11:11:27.957Z,15.26
2019-04-05T11:12:31.648Z,15.31
2019-04-05T11:13:35.692Z,15.34
2019-04-05T11:14:39.301Z,15.34
2019-04-05T11:15:42.946Z,15.25
2019-04-05T11:16:57.793Z,15.34
2019-04-05T11:17:52.057Z,15.43
2019-04-05T11:18:55.757Z,15.40
2019-04-05T11:19:59.459Z,15.56
2019-04-05T11:21:03.103Z,15.56
2019-04-05T11:22:06.830Z,15.54
2019-04-05T11:23:10.580Z,15.52
2019-04-05T11:24:14.368Z,15.45
2019-04-05T11:25:20.628Z,15.34
2019-04-05T11:26:23.897Z,15.39
2019-04-05T11:27:27.645Z,15.39
2019-04-05T11:28:31.321Z,15.41
2019-04-05T11:29:35.432Z,15.50
2019-04-05T11:30:44.321Z,15.58
2019-04-05T11:31:56.964Z,15.56
2019-04-05T11:32:53.443Z,15.64
2019-04-05T11:33:57.218Z,15.40
2019-04-05T11:35:00.960Z,15.49
2019-04-05T11:36:04.740Z,15.60
2019-04-05T11:37:08.392Z,15.68
2019-04-05T11:38:12.807Z,15.60
2019-04-05T11:39:16.455Z,15.57
2019-04-05T11:40:20.322Z,15.62
2019-04-05T11:41:26.319Z,15.64
2019-04-05T11:42:32.987Z,15.63
2019-04-05T11:43:37.379Z,15.63
2019-04-05T11:44:43.103Z,15.70
2019-04-05T11:45:48.553Z,15.68
2019-04-05T11:46:52.903Z,15.73
2019-04-05T11:47:57.723Z,15.82
2019-04-05T11:49:03.718Z,15.84
2019-04-05T11:50:12.709Z,15.81
2019-04-05T11:51:16.366Z,15.63
2019-04-05T11:52:20.222Z,15.69
2019-04-05T11:53:23.959Z,15.56
2019-04-05T11:54:27.545Z,15.61
2019-04-05T11:55:31.197Z,15.67
2019-04-05T11:56:34.824Z,15.66
2019-04-05T11:57:41.154Z,15.62
2019-04-05T11:58:48.522Z,15.66
2019-04-05T11:59:51.259Z,15.62
2019-04-05T12:01:12.564Z,15.47
2019-04-05T12:02:17.993Z,15.50
2019-04-05T12:03:32.068Z,15.53
2019-04-05T12:04:35.775Z,15.49
2019-04-05T12:05:39.424Z,15.50
2019-04-05T12:06:43.145Z,15.50
2019-04-05T12:07:46.794Z,15.48
2019-04-05T12:08:50.475Z,15.49
2019-04-05T12:09:54.204Z,15.56
2019-04-05T12:10:58.119Z,15.60
2019-04-05T12:12:01.779Z,15.59
2019-04-05T12:13:05.426Z,15.58
2019-04-05T12:14:09.209Z,15.61
2019-04-05T12:15:13.333Z,15.60
2019-04-05T12:16:17.037Z,15.61
2019-04-05T12:17:20.760Z,15.63
2019-04-05T12:18:24.343Z,15.59
2019-04-05T12:19:28.036Z,15.50
2019-04-05T12:20:33.338Z,15.52
2019-04-05T12:21:37.484Z,15.58
2019-04-05T12:22:41.167Z,15.59
2019-04-05T12:23:44.805Z,15.52
2019-04-05T12:24:48.493Z,15.48
2019-04-05T12:25:54.428Z,15.40
2019-04-05T12:26:57.658Z,15.45
2019-04-05T12:28:06.882Z,15.43
2019-04-05T12:29:06.626Z,15.44
2019-04-05T12:30:12.655Z,15.45
2019-04-05T12:31:16.472Z,15.34
2019-04-05T12:32:32.985Z,15.36
2019-04-05T12:33:27.135Z,15.36
2019-04-05T12:34:30.764Z,15.40
2019-04-05T12:35:37.441Z,15.39
2019-04-05T12:36:39.922Z,15.46
2019-04-05T12:37:50.161Z,15.49
2019-04-05T12:38:49.407Z,15.54
2019-04-05T12:39:53.046Z,15.60
2019-04-05T12:40:57.236Z,15.61
2019-04-05T12:42:00.875Z,15.59
2019-04-05T12:43:04.540Z,15.49
2019-04-05T12:44:08.198Z,15.48
2019-04-05T12:45:15.299Z,15.49
2019-04-05T12:46:18.560Z,15.55
2019-04-05T12:47:22.226Z,15.54
2019-04-05T12:48:25.874Z,15.58
2019-04-05T12:49:29.534Z,15.49
2019-04-05T12:50:33.201Z,15.53
2019-04-05T12:51:36.904Z,15.55
2019-04-05T12:52:40.532Z,15.51
2019-04-05T12:53:44.190Z,15.54
2019-04-05T12:54:50.975Z,15.51
2019-04-05T12:55:56.234Z,15.46
2019-04-05T12:56:58.736Z,15.53
2019-04-05T12:58:02.388Z,15.59
2019-04-05T12:59:06.115Z,15.60
2019-04-05T13:00:13.582Z,15.59
2019-04-05T13:01:17.318Z,15.57
2019-04-05T13:02:33.370Z,15.55
2019-04-05T13:03:29.093Z,15.42
2019-04-05T13:04:32.757Z,15.34
2019-04-05T13:05:36.409Z,15.41
2019-04-05T13:06:42.314Z,15.43
2019-04-05T13:07:45.477Z,15.45
2019-04-05T13:08:49.129Z,15.39
2019-04-05T13:09:54.939Z,15.49
2019-04-05T13:10:58.184Z,15.58
2019-04-05T13:12:01.797Z,15.59
2019-04-05T13:13:05.488Z,15.57
2019-04-05T13:14:09.223Z,15.58
2019-04-05T13:15:16.967Z,15.69
2019-04-05T13:16:18.643Z,15.78
2019-04-05T13:17:22.315Z,15.77
2019-04-05T13:18:25.994Z,15.63
2019-04-05T13:19:30.717Z,15.56
2019-04-05T13:20:34.894Z,15.56
2019-04-05T13:21:38.520Z,15.53
2019-04-05T13:22:42.189Z,15.61
2019-04-05T13:23:45.876Z,15.68
2019-04-05T13:24:49.591Z,15.57
2019-04-05T13:25:53.245Z,15.53
2019-04-05T13:26:56.973Z,15.56
2019-04-05T13:28:12.455Z,15.58
2019-04-05T13:29:09.970Z,15.56
2019-04-05T13:30:18.357Z,15.53
2019-04-05T13:31:20.089Z,15.50
2019-04-05T13:32:23.744Z,15.56
2019-04-05T13:33:28.980Z,15.63
2019-04-05T13:34:32.865Z,15.76
2019-04-05T13:35:36.528Z,15.75
2019-04-05T13:36:40.182Z,15.77
2019-04-05T13:37:43.831Z,15.81
2019-04-05T13:38:54.654Z,15.94
2019-04-05T13:39:52.892Z,15.87
2019-04-05T13:40:57.000Z,15.89
2019-04-05T13:42:01.784Z,15.90
2019-04-05T13:43:06.127Z,15.86
2019-04-05T13:44:09.925Z,15.91
2019-04-05T13:45:14.007Z,15.96
2019-04-05T13:46:22.227Z,15.97
2019-04-05T13:47:23.360Z,16.01
2019-04-05T13:48:27.021Z,16.13
2019-04-05T13:49:30.672Z,16.17
2019-04-05T13:50:34.425Z,16.20
2019-04-05T13:51:41.580Z,16.34
2019-04-05T13:52:44.822Z,16.44